Wisbech, United Kingdom
Current Conditions -  °F | °C
As of 12:50 PM on Thursday 18 Dec 2014 (Local Time) from EGYM Reporting Station
Broken Clouds Broken Clouds  
Wind Chill: 55°   Ceiling: 2200
Heat Index: 55°   Visibility: 6mi
Dew Point: 50°   Wind: 29mph
Humidity: 82%   Direction: 230°SW
Pressure: 29.65"   Gusts: 41mph
Location:  52.67°N, 0.16°E
Report Text: EGYM 181250Z AUTO 23025G36KT 9999 FEW017/// BKN022/// BKN110/// 13/10 Q1004
Loading
Personal Weather Stations






























Interactive Weather Map New forecast layout! Learn more

10-Day Weather Forecast

Advertisements
Track Severe Weather on mobile